Kemal Ka — TCTM5 — position and weather

sailwx.info

Track history (hours):
 
Tides and Currents Weather Stations Pressure Air Temp Water Temp Dewpoint Dewpoint Depression Visibility Wind Speed Wind Dir Waves Ship Positions

Kemal Ka

Last reported at 2018-Jun-20 23:01 UTC. Time now 2018-Jun-25 00:44 UTC.
Position N 39°47' E 025°46'.

Length 138 m; draft 8.1 m.

Type: Tanker. MMSI: 271002668.

Date/timePositionNaut miles runAvg speedWind from/ knotsBaromVisibWave heightAir tempDewpointWater temp
2018-Jun-20 23:01N 39°47' E 025°46'0 1.0
2018-Jun-20 22:58N 39°47' E 025°46'  
2018-Jun-17 05:12N 46°13' E 030°56'310.2
2018-Jun-17 04:56N 46°15' E 030°54'510.6
2018-Jun-17 04:30N 46°20' E 030°55'510.8
2018-Jun-17 04:00N 46°25' E 030°55'510.8
2018-Jun-17 03:30N 46°31' E 030°55'4 8.5
2018-Jun-17 03:00N 46°34' E 030°60'5 7.6
2018-Jun-17 02:20N 46°39' E 031°01'3 0.1
2018-Jun-15 11:16N 46°36' E 031°01'2 9.0
2018-Jun-15 11:00N 46°33' E 030°60'5 9.3
2018-Jun-15 10:30N 46°29' E 030°57'612.5
2018-Jun-15 09:59N 46°23' E 030°57'1411.7
2018-Jun-15 08:45N 46°10' E 031°06'611.8
2018-Jun-15 08:13N 46°04' E 031°09'312.1
2018-Jun-15 08:00N 46°01' E 031°09'611.9
2018-Jun-15 07:30N 45°55' E 031°10'611.6
2018-Jun-15 07:00N 45°50' E 031°11'611.5
2018-Jun-15 06:30N 45°44' E 031°12'611.6
2018-Jun-15 06:00N 45°38' E 031°13'611.4
2018-Jun-15 05:31N 45°33' E 031°13'611.4
2018-Jun-15 05:00N 45°27' E 031°13'611.6
2018-Jun-15 04:30N 45°21' E 031°10'611.7
2018-Jun-15 04:01N 45°16' E 031°07'611.7
2018-Jun-15 03:30N 45°10' E 031°05'611.9
2018-Jun-15 03:00N 45°05' E 031°02'611.9
2018-Jun-15 02:31N 44°59' E 030°59'612.2
2018-Jun-15 02:01N 44°53' E 030°56'612.2
2018-Jun-15 01:30N 44°48' E 030°53'612.1
2018-Jun-15 01:00N 44°42' E 030°50'612.1
2018-Jun-15 00:30N 44°36' E 030°48'611.9
2018-Jun-15 00:01N 44°31' E 030°45'611.9
2018-Jun-14 23:30N 44°25' E 030°42'611.7
2018-Jun-14 23:01N 44°19' E 030°39'611.6
2018-Jun-14 22:30N 44°14' E 030°37'611.6
2018-Jun-14 22:00N 44°08' E 030°34'611.7
2018-Jun-14 21:30N 44°03' E 030°31'611.8
2018-Jun-14 21:00N 43°57' E 030°29'611.6
2018-Jun-14 20:30N 43°52' E 030°26'611.5
2018-Jun-14 20:00N 43°46' E 030°23'611.7
2018-Jun-14 19:30N 43°41' E 030°21'917.7
2018-Jun-14 19:00N 43°33' E 030°17'3359.2
2018-Jun-14 18:27N 43°02' E 030°02'1530.9
2018-Jun-14 17:58N 42°47' E 029°55'15 4.9
2018-Jun-14 14:47N 42°33' E 029°48'1 1.7
2018-Jun-14 14:24N 42°32' E 029°48'1 1.9
2018-Jun-14 13:54N 42°31' E 029°47'6510.2
2018-Jun-14 07:33N 41°30' E 029°18'111.7
2018-Jun-14 07:30N 41°29' E 029°18'811.7
2018-Jun-14 06:47N 41°21' E 029°14'29 4.8
2018-Jun-14 00:46N 40°57' E 028°53'0 0.0
2018-Jun-14 00:28N 40°57' E 028°53'0 0.0
2018-Jun-13 23:22N 40°57' E 028°53'0 0.0
2018-Jun-13 22:49N 40°57' E 028°53'0 0.1
2018-Jun-13 22:16N 40°57' E 028°53'0 0.0
2018-Jun-13 21:58N 40°57' E 028°53'0 0.0
2018-Jun-13 21:22N 40°57' E 028°53'0 0.1
2018-Jun-13 20:52N 40°57' E 028°53'0 0.0
2018-Jun-13 20:25N 40°57' E 028°53'0 0.0
2018-Jun-13 19:19N 40°57' E 028°53'0 0.0
2018-Jun-13 18:58N 40°57' E 028°53'0 0.0
2018-Jun-13 14:05N 40°57' E 028°53'2 5.7
2018-Jun-13 13:49N 40°55' E 028°54'710.0
2018-Jun-13 13:04N 40°49' E 028°59'5 6.2
2018-Jun-13 12:16N 40°48' E 029°06'3 8.5
2018-Jun-13 11:54N 40°48' E 029°10'611.0
2018-Jun-13 11:21N 40°46' E 029°17'  
Track history (hours):
 
Tides and Currents Weather Stations Pressure Air Temp Water Temp Dewpoint Dewpoint Depression Visibility Wind Speed Wind Dir Waves Ship Positions

Kemal Ka

Last reported at 2018-Jun-20 23:01 UTC. Time now 2018-Jun-25 00:44 UTC.
Position N 39°47' E 025°46'.

Length 138 m; draft 8.1 m.

Type: Tanker. MMSI: 271002668.

Date/timePositionNaut miles runAvg speedWind from/ knotsBaromVisibWave heightAir tempDewpointWater temp
2018-Jun-20 23:01N 39°47' E 025°46'0 1.0
2018-Jun-20 22:58N 39°47' E 025°46'  
2018-Jun-17 05:12N 46°13' E 030°56'310.2
2018-Jun-17 04:56N 46°15' E 030°54'510.6
2018-Jun-17 04:30N 46°20' E 030°55'510.8
2018-Jun-17 04:00N 46°25' E 030°55'510.8
2018-Jun-17 03:30N 46°31' E 030°55'4 8.5
2018-Jun-17 03:00N 46°34' E 030°60'5 7.6
2018-Jun-17 02:20N 46°39' E 031°01'3 0.1
2018-Jun-15 11:16N 46°36' E 031°01'2 9.0
2018-Jun-15 11:00N 46°33' E 030°60'5 9.3
2018-Jun-15 10:30N 46°29' E 030°57'612.5
2018-Jun-15 09:59N 46°23' E 030°57'1411.7
2018-Jun-15 08:45N 46°10' E 031°06'611.8
2018-Jun-15 08:13N 46°04' E 031°09'312.1
2018-Jun-15 08:00N 46°01' E 031°09'611.9
2018-Jun-15 07:30N 45°55' E 031°10'611.6
2018-Jun-15 07:00N 45°50' E 031°11'611.5
2018-Jun-15 06:30N 45°44' E 031°12'611.6
2018-Jun-15 06:00N 45°38' E 031°13'611.4
2018-Jun-15 05:31N 45°33' E 031°13'611.4
2018-Jun-15 05:00N 45°27' E 031°13'611.6
2018-Jun-15 04:30N 45°21' E 031°10'611.7
2018-Jun-15 04:01N 45°16' E 031°07'611.7
2018-Jun-15 03:30N 45°10' E 031°05'611.9
2018-Jun-15 03:00N 45°05' E 031°02'611.9
2018-Jun-15 02:31N 44°59' E 030°59'612.2
2018-Jun-15 02:01N 44°53' E 030°56'612.2
2018-Jun-15 01:30N 44°48' E 030°53'612.1
2018-Jun-15 01:00N 44°42' E 030°50'612.1
2018-Jun-15 00:30N 44°36' E 030°48'611.9
2018-Jun-15 00:01N 44°31' E 030°45'611.9
2018-Jun-14 23:30N 44°25' E 030°42'611.7
2018-Jun-14 23:01N 44°19' E 030°39'611.6
2018-Jun-14 22:30N 44°14' E 030°37'611.6
2018-Jun-14 22:00N 44°08' E 030°34'611.7
2018-Jun-14 21:30N 44°03' E 030°31'611.8
2018-Jun-14 21:00N 43°57' E 030°29'611.6
2018-Jun-14 20:30N 43°52' E 030°26'611.5
2018-Jun-14 20:00N 43°46' E 030°23'611.7
2018-Jun-14 19:30N 43°41' E 030°21'917.7
2018-Jun-14 19:00N 43°33' E 030°17'3359.2
2018-Jun-14 18:27N 43°02' E 030°02'1530.9
2018-Jun-14 17:58N 42°47' E 029°55'15 4.9
2018-Jun-14 14:47N 42°33' E 029°48'1 1.7
2018-Jun-14 14:24N 42°32' E 029°48'1 1.9
2018-Jun-14 13:54N 42°31' E 029°47'6510.2
2018-Jun-14 07:33N 41°30' E 029°18'111.7
2018-Jun-14 07:30N 41°29' E 029°18'811.7
2018-Jun-14 06:47N 41°21' E 029°14'29 4.8
2018-Jun-14 00:46N 40°57' E 028°53'0 0.0
2018-Jun-14 00:28N 40°57' E 028°53'0 0.0
2018-Jun-13 23:22N 40°57' E 028°53'0 0.0
2018-Jun-13 22:49N 40°57' E 028°53'0 0.1
2018-Jun-13 22:16N 40°57' E 028°53'0 0.0
2018-Jun-13 21:58N 40°57' E 028°53'0 0.0
2018-Jun-13 21:22N 40°57' E 028°53'0 0.1
2018-Jun-13 20:52N 40°57' E 028°53'0 0.0
2018-Jun-13 20:25N 40°57' E 028°53'0 0.0
2018-Jun-13 19:19N 40°57' E 028°53'0 0.0
2018-Jun-13 18:58N 40°57' E 028°53'0 0.0
2018-Jun-13 14:05N 40°57' E 028°53'2 5.7
2018-Jun-13 13:49N 40°55' E 028°54'710.0
2018-Jun-13 13:04N 40°49' E 028°59'5 6.2
2018-Jun-13 12:16N 40°48' E 029°06'3 8.5
2018-Jun-13 11:54N 40°48' E 029°10'611.0
2018-Jun-13 11:21N 40°46' E 029°17'  

Dump ship's entire track history